Time;durP1;ratioP1;P1;durP2;ratioP2;P2;SDS_P1;SDS_P2;PMS_P1;PMS_P2;Temp;Humidity;BMP_temperature;BMP_pressure;BME280_temperature;BME280_humidity;BME280_pressure;Samples;Min_cycle;Max_cycle;Signal;HPM_P1;HPM_P2
2023/08/26 00:00:11;;;;;;;7.47;5.80;;;;;;;22.98;72.38;93559.66;511935;28;1433;-45
2023/08/26 00:00:28;;;;;;;6.85;5.88;;;;;;;22.88;72.13;93540.19;512209;28;880;-46
2023/08/26 00:00:44;;;;;;;6.05;5.45;;;;;;;22.97;72.08;93558.97;513829;28;1180;-45
2023/08/26 00:00:59;;;;;;;8.67;5.87;;;;;;;22.96;72.13;93556.75;513801;28;761;-45
2023/08/26 00:01:14;;;;;;;8.87;6.13;;;;;;;22.98;72.28;93554.03;513746;28;1146;-45
2023/08/26 00:01:30;;;;;;;6.45;5.78;;;;;;;22.98;72.63;93554.03;513892;28;853;-46
2023/08/26 00:01:45;;;;;;;7.23;5.80;;;;;;;22.97;72.27;93553.31;513816;28;871;-45
2023/08/26 00:02:01;;;;;;;8.82;6.15;;;;;;;22.98;72.64;93556.84;513856;28;836;-44
2023/08/26 00:02:16;;;;;;;7.67;6.07;;;;;;;22.97;72.30;93556.13;512461;28;1251;-45
2023/08/26 00:02:32;;;;;;;6.03;5.43;;;;;;;22.97;72.27;93550.50;512578;28;1493;-44
2023/08/26 00:02:47;;;;;;;6.22;5.55;;;;;;;22.97;71.93;93549.78;513644;28;1103;-43
2023/08/26 00:03:03;;;;;;;6.87;5.67;;;;;;;22.96;71.72;93554.66;513284;28;841;-44
2023/08/26 00:03:18;;;;;;;6.93;5.50;;;;;;;22.96;72.03;93551.84;511713;28;1124;-44
2023/08/26 00:03:33;;;;;;;6.50;5.50;;;;;;;22.97;72.08;93552.59;513040;28;932;-45
2023/08/26 00:03:49;;;;;;;5.80;5.20;;;;;;;22.96;71.93;93542.66;513742;28;809;-44
2023/08/26 00:04:04;;;;;;;6.00;5.40;;;;;;;22.97;71.91;93553.31;512940;28;1404;-44
2023/08/26 00:04:21;;;;;;;6.70;5.33;;;;;;;22.97;72.30;93553.31;513668;28;863;-43
2023/08/26 00:04:36;;;;;;;6.60;5.22;;;;;;;22.96;72.59;93551.13;513616;28;1477;-45
2023/08/26 00:04:52;;;;;;;6.30;5.67;;;;;;;22.97;72.29;93546.97;513602;28;1638;-43
2023/08/26 00:05:07;;;;;;;6.13;5.53;;;;;;;22.97;72.51;93544.13;513670;28;762;-44
2023/08/26 00:05:23;;;;;;;6.20;5.45;;;;;;;22.96;72.28;93549.03;513686;28;940;-44
2023/08/26 00:05:38;;;;;;;6.77;5.53;;;;;;;22.96;72.29;93551.84;513684;28;1087;-45
2023/08/26 00:05:53;;;;;;;7.18;5.82;;;;;;;22.97;72.23;93546.97;512988;28;1479;-44
2023/08/26 00:06:09;;;;;;;6.30;5.67;;;;;;;22.96;72.29;93540.59;512642;28;887;-44
2023/08/26 00:06:24;;;;;;;5.90;5.30;;;;;;;22.95;72.45;93549.69;513443;28;1174;-44
2023/08/26 00:06:39;;;;;;;6.17;5.47;;;;;;;22.90;72.60;93540.28;511919;28;923;-45
2023/08/26 00:06:55;;;;;;;6.20;5.60;;;;;;;22.91;72.69;93541.75;512213;28;856;-44
2023/08/26 00:07:10;;;;;;;6.50;5.80;;;;;;;22.90;72.65;93545.19;513724;28;1119;-44
2023/08/26 00:07:26;;;;;;;6.70;6.00;;;;;;;22.82;72.60;93533.53;513402;28;1428;-44
2023/08/26 00:07:42;;;;;;;6.22;5.63;;;;;;;22.91;72.50;93549.47;512729;28;1298;-45
2023/08/26 00:07:57;;;;;;;5.93;5.33;;;;;;;22.91;72.25;93544.59;513459;28;1231;-44
2023/08/26 00:08:12;;;;;;;6.10;5.43;;;;;;;22.92;72.50;93546.03;513848;28;799;-46
2023/08/26 00:08:28;;;;;;;6.90;5.68;;;;;;;22.93;72.49;93546.75;513799;28;963;-44
2023/08/26 00:08:43;;;;;;;6.07;5.50;;;;;;;22.93;72.55;93549.56;512518;28;1311;-44
2023/08/26 00:08:58;;;;;;;6.13;5.63;;;;;;;22.93;72.29;93543.94;513707;28;963;-46
2023/08/26 00:09:14;;;;;;;6.35;5.75;;;;;;;22.93;72.59;93549.56;512532;28;1160;-44
2023/08/26 00:09:29;;;;;;;6.43;5.43;;;;;;;22.93;72.43;93549.56;513839;28;803;-45
2023/08/26 00:09:45;;;;;;;8.00;5.50;;;;;;;22.91;72.48;93546.66;513707;28;789;-45
2023/08/26 00:10:00;;;;;;;8.75;5.85;;;;;;;22.93;72.62;93552.38;513872;28;778;-45
2023/08/26 00:10:15;;;;;;;7.50;5.83;;;;;;;22.89;72.62;93543.75;513847;28;1360;-45
2023/08/26 00:10:31;;;;;;;7.90;5.50;;;;;;;22.95;72.39;93552.50;513165;28;1632;-45
2023/08/26 00:10:46;;;;;;;8.67;5.63;;;;;;;22.95;72.51;93544.03;513094;28;1324;-45
2023/08/26 00:11:01;;;;;;;7.03;5.57;;;;;;;22.96;72.46;93548.31;513613;28;1399;-44
2023/08/26 00:11:17;;;;;;;6.10;5.47;;;;;;;22.95;72.25;93547.59;513804;28;817;-45
2023/08/26 00:11:32;;;;;;;6.83;5.80;;;;;;;22.95;72.62;93549.69;513837;28;814;-45
2023/08/26 00:11:49;;;;;;;7.00;5.78;;;;;;;22.94;72.18;93546.13;513731;28;845;-45
2023/08/26 00:12:05;;;;;;;6.45;5.43;;;;;;;22.95;72.49;93552.50;513554;28;1628;-46
2023/08/26 00:12:20;;;;;;;7.33;5.50;;;;;;;22.95;72.30;93550.41;513759;28;1079;-46
2023/08/26 00:12:35;;;;;;;6.70;5.75;;;;;;;22.95;72.37;93552.50;513104;28;803;-46
2023/08/26 00:12:51;;;;;;;6.17;5.47;;;;;;;22.93;72.43;93549.56;511745;28;893;-45
2023/08/26 00:13:07;;;;;;;6.13;5.05;;;;;;;22.94;72.32;93546.13;512739;28;923;-45
2023/08/26 00:13:22;;;;;;;6.07;5.03;;;;;;;22.94;71.89;93551.03;513739;28;1569;-45
2023/08/26 00:13:37;;;;;;;6.13;5.40;;;;;;;22.93;72.04;93549.56;513716;28;849;-46
2023/08/26 00:13:53;;;;;;;7.22;5.55;;;;;;;22.94;72.06;93556.66;513691;28;911;-45
2023/08/26 00:14:08;;;;;;;6.50;5.30;;;;;;;22.92;72.27;93550.91;513649;28;2264;-45
2023/08/26 00:14:24;;;;;;;6.00;5.40;;;;;;;22.91;72.20;93549.47;513688;28;966;-45
2023/08/26 00:14:39;;;;;;;6.32;5.60;;;;;;;22.90;72.11;93551.56;513681;28;1326;-45
2023/08/26 00:14:54;;;;;;;5.97;5.37;;;;;;;22.91;72.14;93549.47;513466;28;1353;-44
2023/08/26 00:15:10;;;;;;;6.13;5.25;;;;;;;22.91;71.98;93555.09;513489;28;1219;-46
2023/08/26 00:15:25;;;;;;;5.90;5.27;;;;;;;22.91;72.11;93546.66;511761;28;935;-46
2023/08/26 00:15:40;;;;;;;5.70;5.20;;;;;;;22.92;71.98;93553.72;513610;28;1984;-44
2023/08/26 00:15:56;;;;;;;5.90;5.30;;;;;;;22.90;71.88;93554.38;513574;28;809;-45
2023/08/26 00:16:14;;;;;;;10.05;6.05;;;;;;;22.89;71.89;93550.09;513826;28;817;-45
2023/08/26 00:16:30;;;;;;;10.20;6.03;;;;;;;22.88;71.88;93551.47;513000;28;946;-47
2023/08/26 00:16:45;;;;;;;8.55;5.50;;;;;;;22.88;71.62;93551.47;511798;28;892;-44
2023/08/26 00:17:01;;;;;;;8.73;5.80;;;;;;;22.86;71.80;93545.00;511718;28;845;-46
2023/08/26 00:17:17;;;;;;;7.40;6.30;;;;;;;22.87;72.05;93549.28;511769;28;1024;-45
2023/08/26 00:17:34;;;;;;;7.18;6.13;;;;;;;22.78;71.88;93542.50;511821;28;962;-45
2023/08/26 00:17:49;;;;;;;6.33;5.73;;;;;;;22.82;71.96;93544.78;511732;28;896;-46
2023/08/26 00:18:08;;;;;;;7.13;6.05;;;;;;;22.85;72.20;93557.63;511852;28;871;-45
2023/08/26 00:18:23;;;;;;;7.43;5.90;;;;;;;22.84;72.21;93551.25;511766;28;880;-45
2023/08/26 00:18:39;;;;;;;6.07;5.23;;;;;;;22.84;71.97;93553.34;511803;28;1128;-45
2023/08/26 00:18:55;;;;;;;5.40;4.90;;;;;;;22.83;72.07;93543.41;511634;28;864;-46
2023/08/26 00:19:10;;;;;;;6.15;5.35;;;;;;;22.82;71.90;93556.06;513063;28;1501;-44
2023/08/26 00:19:26;;;;;;;6.80;5.55;;;;;;;22.82;72.02;93553.25;513756;28;880;-46
2023/08/26 00:19:42;;;;;;;6.10;5.47;;;;;;;22.83;71.82;93557.50;513725;28;832;-45
2023/08/26 00:19:58;;;;;;;6.03;5.43;;;;;;;22.81;72.06;93552.50;513722;28;823;-45
2023/08/26 00:20:14;;;;;;;6.77;5.57;;;;;;;22.82;72.02;93556.06;513800;28;820;-46
2023/08/26 00:20:30;;;;;;;6.95;5.80;;;;;;;22.82;72.13;93553.25;513799;28;922;-45
2023/08/26 00:20:45;;;;;;;7.30;5.63;;;;;;;22.80;72.20;93548.25;513753;28;791;-45
2023/08/26 00:21:00;;;;;;;7.57;5.33;;;;;;;22.80;71.89;93551.06;513675;28;953;-46
2023/08/26 00:21:21;;;;;;;11.13;5.50;;;;;;;22.78;72.24;93545.34;513800;28;864;-47
2023/08/26 00:21:37;;;;;;;9.35;5.82;;;;;;;22.79;72.18;93549.59;513796;28;823;-47
2023/08/26 00:21:52;;;;;;;6.07;5.47;;;;;;;22.80;72.25;93553.13;513794;28;868;-46
2023/08/26 00:22:08;;;;;;;6.30;5.23;;;;;;;22.80;72.33;93547.50;513675;28;1151;-46
2023/08/26 00:22:23;;;;;;;10.75;5.72;;;;;;;22.80;72.08;93550.31;513787;28;963;-45
2023/08/26 00:22:39;;;;;;;11.97;6.37;;;;;;;22.78;72.21;93550.97;513745;28;854;-45
2023/08/26 00:22:54;;;;;;;7.47;5.65;;;;;;;22.79;72.11;93548.84;513196;28;1456;-45
2023/08/26 00:23:10;;;;;;;7.67;5.77;;;;;;;22.78;72.15;93553.03;511638;28;875;-47
2023/08/26 00:23:25;;;;;;;12.03;6.37;;;;;;;22.78;71.94;93550.22;511768;28;1210;-45
2023/08/26 00:23:40;;;;;;;11.35;6.05;;;;;;;22.76;71.95;93553.66;511799;28;1208;-45
2023/08/26 00:23:56;;;;;;;8.17;5.73;;;;;;;22.75;72.27;93548.66;512832;28;1322;-45
2023/08/26 00:24:12;;;;;;;7.40;5.82;;;;;;;22.73;72.26;93548.56;511878;28;1358;-46
2023/08/26 00:24:28;;;;;;;6.45;5.75;;;;;;;22.73;72.27;93549.28;512728;28;1412;-45
2023/08/26 00:24:44;;;;;;;6.10;5.50;;;;;;;22.74;71.98;93552.84;512988;28;1219;-45
2023/08/26 00:24:59;;;;;;;6.00;5.40;;;;;;;22.74;72.30;93552.84;513233;28;1405;-45
2023/08/26 00:25:15;;;;;;;6.57;5.20;;;;;;;22.73;72.19;93549.28;513836;28;1121;-45
2023/08/26 00:25:30;;;;;;;6.13;5.07;;;;;;;22.73;72.10;93551.38;511940;28;920;-46
2023/08/26 00:25:45;;;;;;;6.00;5.30;;;;;;;22.73;72.33;93548.56;513179;28;844;-45
2023/08/26 00:26:01;;;;;;;6.53;5.38;;;;;;;22.73;72.41;93540.09;513791;28;884;-45
2023/08/26 00:26:16;;;;;;;6.67;5.57;;;;;;;22.72;72.37;93547.81;513887;28;839;-45
2023/08/26 00:26:32;;;;;;;6.80;5.65;;;;;;;22.72;72.42;93541.47;513883;28;797;-45
2023/08/26 00:26:47;;;;;;;6.80;5.17;;;;;;;22.71;72.17;93545.63;513725;28;1269;-45
2023/08/26 00:27:03;;;;;;;7.23;5.03;;;;;;;22.70;72.24;93547.72;513809;28;849;-45
2023/08/26 00:27:19;;;;;;;11.15;5.60;;;;;;;22.70;72.38;93547.00;513828;28;891;-45
2023/08/26 00:27:34;;;;;;;11.30;5.50;;;;;;;22.69;72.47;93545.53;513866;28;864;-47
2023/08/26 00:27:49;;;;;;;7.07;5.50;;;;;;;22.69;72.37;93543.47;513840;28;769;-45
2023/08/26 00:28:05;;;;;;;6.17;5.53;;;;;;;22.69;72.62;93551.91;513841;28;947;-45
2023/08/26 00:28:20;;;;;;;6.65;5.75;;;;;;;22.69;72.68;93545.53;513867;28;960;-44
2023/08/26 00:28:35;;;;;;;8.60;5.77;;;;;;;22.69;72.55;93545.53;513932;28;819;-44
2023/08/26 00:28:51;;;;;;;8.10;5.53;;;;;;;22.68;72.51;93549.69;513865;28;1559;-45
2023/08/26 00:29:06;;;;;;;8.05;5.75;;;;;;;22.67;72.74;93543.34;513860;28;793;-46
2023/08/26 00:29:21;;;;;;;7.33;5.27;;;;;;;22.67;72.54;93548.25;513746;28;2391;-46
2023/08/26 00:29:37;;;;;;;6.93;5.10;;;;;;;22.66;72.88;93539.06;513832;28;871;-46
2023/08/26 00:29:52;;;;;;;7.63;5.43;;;;;;;22.66;72.66;93541.16;513709;28;872;-45
2023/08/26 00:30:08;;;;;;;7.10;5.40;;;;;;;22.65;72.83;93542.53;513801;28;864;-45
2023/08/26 00:30:24;;;;;;;6.20;5.27;;;;;;;22.64;73.18;93544.59;513869;28;765;-45
2023/08/26 00:30:39;;;;;;;5.82;5.25;;;;;;;22.63;73.28;93541.03;513801;28;919;-45
2023/08/26 00:30:58;;;;;;;6.43;5.57;;;;;;;22.61;73.26;93540.22;511768;29;900;-46
2023/08/26 00:31:14;;;;;;;6.18;5.55;;;;;;;22.63;73.25;93541.03;511749;28;904;-45
2023/08/26 00:31:29;;;;;;;5.80;5.20;;;;;;;22.63;73.37;93539.59;511851;28;772;-45
2023/08/26 00:31:44;;;;;;;6.93;5.40;;;;;;;22.63;73.47;93542.41;511858;28;1398;-45
2023/08/26 00:32:00;;;;;;;7.93;5.40;;;;;;;22.63;73.23;93542.41;511864;28;845;-44
2023/08/26 00:32:15;;;;;;;6.37;5.13;;;;;;;22.60;73.38;93542.31;511898;28;830;-45
2023/08/26 00:32:31;;;;;;;6.00;5.38;;;;;;;22.61;73.50;93537.41;511829;28;828;-46
2023/08/26 00:32:47;;;;;;;6.50;5.57;;;;;;;22.60;73.55;93536.69;511824;28;830;-45
2023/08/26 00:33:02;;;;;;;6.03;5.40;;;;;;;22.60;73.51;93536.69;511779;28;920;-45
2023/08/26 00:33:18;;;;;;;5.83;5.30;;;;;;;22.60;73.74;93533.88;511901;28;915;-45
2023/08/26 00:33:33;;;;;;;6.13;5.53;;;;;;;22.60;73.67;93538.78;511874;28;1018;-45
2023/08/26 00:33:48;;;;;;;6.10;5.50;;;;;;;22.60;73.51;93544.41;511812;28;832;-45
2023/08/26 00:34:04;;;;;;;6.00;5.40;;;;;;;22.58;73.50;93539.38;511732;28;1976;-45
2023/08/26 00:34:19;;;;;;;6.18;5.57;;;;;;;22.58;73.22;93536.56;511846;28;1003;-45
2023/08/26 00:34:35;;;;;;;6.13;5.53;;;;;;;22.57;73.23;93540.72;511776;28;1382;-44
2023/08/26 00:34:50;;;;;;;6.43;5.23;;;;;;;22.57;73.07;93535.09;511910;28;782;-45
2023/08/26 00:35:06;;;;;;;6.28;5.55;;;;;;;22.57;73.20;93535.09;511787;28;832;-45
2023/08/26 00:35:21;;;;;;;6.43;5.73;;;;;;;22.57;73.09;93537.91;511756;28;1409;-44
2023/08/26 00:35:37;;;;;;;6.40;5.38;;;;;;;22.57;73.04;93543.53;512825;28;1373;-45
2023/08/26 00:35:53;;;;;;;5.80;5.20;;;;;;;22.56;73.01;93541.34;513333;28;1800;-46
2023/08/26 00:36:08;;;;;;;7.05;5.45;;;;;;;22.57;73.14;93537.91;513744;28;887;-45
2023/08/26 00:36:24;;;;;;;7.68;5.47;;;;;;;22.56;73.39;93536.47;513882;28;802;-45
2023/08/26 00:36:39;;;;;;;6.47;5.30;;;;;;;22.57;73.38;93532.28;512356;28;1369;-45
2023/08/26 00:36:54;;;;;;;6.30;5.57;;;;;;;22.56;73.45;93530.84;514868;28;1366;-44
2023/08/26 00:37:11;;;;;;;6.13;5.47;;;;;;;22.55;73.62;93535.00;513680;28;1059;-45
2023/08/26 00:37:27;;;;;;;5.75;5.15;;;;;;;22.55;73.54;93531.44;513782;28;1716;-45
2023/08/26 00:37:42;;;;;;;6.00;5.40;;;;;;;22.56;73.85;93530.09;513828;28;797;-46
2023/08/26 00:37:58;;;;;;;6.10;5.50;;;;;;;22.49;74.05;93525.50;513419;28;1413;-45
2023/08/26 00:38:13;;;;;;;5.80;5.30;;;;;;;22.53;73.46;93531.34;513798;28;832;-46
2023/08/26 00:38:28;;;;;;;6.10;5.50;;;;;;;22.52;73.33;93533.41;513841;28;848;-45
2023/08/26 00:38:44;;;;;;;6.05;5.45;;;;;;;22.52;73.33;93532.72;513848;28;837;-45
2023/08/26 00:38:59;;;;;;;6.47;5.47;;;;;;;22.52;73.38;93532.72;513750;28;931;-46
2023/08/26 00:39:14;;;;;;;7.73;5.70;;;;;;;22.53;73.53;93531.34;513794;28;801;-46
2023/08/26 00:39:31;;;;;;;7.07;5.80;;;;;;;22.53;73.22;93534.88;513842;28;1592;-46
2023/08/26 00:39:46;;;;;;;6.47;5.88;;;;;;;22.53;73.46;93532.06;513362;28;1480;-44
2023/08/26 00:40:02;;;;;;;6.77;6.13;;;;;;;22.53;73.55;93529.25;512472;28;1445;-46
2023/08/26 00:40:17;;;;;;;6.65;5.95;;;;;;;22.54;73.53;93533.50;513725;28;829;-45
2023/08/26 00:40:36;;;;;;;6.50;5.60;;;;;;;22.54;73.71;93527.88;512537;28;1389;-46
2023/08/26 00:40:51;;;;;;;6.72;5.82;;;;;;;22.53;73.78;93529.25;511860;28;862;-46
2023/08/26 00:41:06;;;;;;;6.23;5.63;;;;;;;22.54;73.42;93527.19;511725;28;868;-46
2023/08/26 00:41:22;;;;;;;6.47;5.73;;;;;;;22.54;73.80;93530.69;511836;28;1371;-45
2023/08/26 00:41:37;;;;;;;7.75;6.10;;;;;;;22.55;73.64;93528.63;512938;28;1405;-45
2023/08/26 00:41:53;;;;;;;7.47;6.00;;;;;;;22.56;73.51;93530.09;511766;28;881;-46
2023/08/26 00:42:08;;;;;;;8.27;5.87;;;;;;;22.56;73.76;93535.72;511766;28;856;-46
2023/08/26 00:42:23;;;;;;;9.23;6.22;;;;;;;22.56;73.71;93528.03;511849;28;936;-45
2023/08/26 00:42:39;;;;;;;7.87;6.23;;;;;;;22.57;73.54;93526.66;511871;28;779;-44
2023/08/26 00:42:54;;;;;;;6.77;5.80;;;;;;;22.57;73.49;93532.28;511784;28;888;-45
2023/08/26 00:43:10;;;;;;;6.63;5.63;;;;;;;22.56;73.37;93528.03;511828;28;797;-45
2023/08/26 00:43:28;;;;;;;8.43;6.03;;;;;;;22.56;73.59;93533.66;511849;28;819;-45
2023/08/26 00:43:44;;;;;;;8.27;6.25;;;;;;;22.55;73.63;93529.34;511786;28;894;-45
2023/08/26 00:43:59;;;;;;;6.17;5.57;;;;;;;22.55;73.68;93535.00;511860;28;822;-45
2023/08/26 00:44:14;;;;;;;5.63;5.07;;;;;;;22.55;73.59;93529.34;512035;28;1334;-46
2023/08/26 00:44:30;;;;;;;7.03;5.50;;;;;;;22.53;73.71;93525.72;511993;28;770;-45
2023/08/26 00:44:45;;;;;;;7.23;5.83;;;;;;;22.55;73.51;93534.25;513546;28;2372;-46
2023/08/26 00:45:00;;;;;;;6.50;5.80;;;;;;;22.55;73.44;93531.44;513557;28;1371;-45
2023/08/26 00:45:16;;;;;;;8.15;5.80;;;;;;;22.54;73.56;93530.69;513579;28;943;-46
2023/08/26 00:45:31;;;;;;;9.37;6.03;;;;;;;22.53;73.42;93526.44;513573;28;1053;-45
2023/08/26 00:45:48;;;;;;;7.93;5.90;;;;;;;22.54;73.31;93535.63;513491;28;872;-45
2023/08/26 00:46:04;;;;;;;8.27;5.47;;;;;;;22.54;73.24;93527.88;513668;28;963;-46
2023/08/26 00:46:20;;;;;;;6.93;5.38;;;;;;;22.54;73.26;93530.00;513591;28;928;-45
2023/08/26 00:46:36;;;;;;;6.20;5.60;;;;;;;22.54;73.31;93525.06;512221;28;959;-46
2023/08/26 00:46:51;;;;;;;7.67;5.43;;;;;;;22.54;72.92;93539.16;513596;28;999;-46
2023/08/26 00:47:06;;;;;;;7.28;5.38;;;;;;;22.55;72.89;93532.19;512563;28;1314;-46
2023/08/26 00:47:22;;;;;;;6.30;5.60;;;;;;;22.54;72.91;93527.19;513231;28;911;-46
2023/08/26 00:47:37;;;;;;;6.20;5.60;;;;;;;22.54;73.15;93527.19;513566;28;1568;-44
2023/08/26 00:47:53;;;;;;;6.88;5.75;;;;;;;22.54;72.55;93527.88;513504;28;913;-46
2023/08/26 00:48:11;;;;;;;6.57;5.70;;;;;;;22.52;72.46;93533.41;513539;28;1420;-46
2023/08/26 00:48:26;;;;;;;7.15;5.57;;;;;;;22.53;72.46;93531.34;513566;28;1401;-46
2023/08/26 00:48:41;;;;;;;7.45;5.57;;;;;;;22.51;72.53;93529.16;513738;28;1093;-46
2023/08/26 00:48:58;;;;;;;6.65;5.60;;;;;;;22.47;72.38;93528.97;513406;28;1468;-45
2023/08/26 00:49:14;;;;;;;6.93;5.50;;;;;;;22.48;72.38;93530.41;511867;28;810;-47
2023/08/26 00:49:29;;;;;;;5.87;4.83;;;;;;;22.49;72.29;93528.31;511818;28;872;-46
2023/08/26 00:49:45;;;;;;;5.72;5.13;;;;;;;22.48;72.57;93536.03;511723;28;774;-46
2023/08/26 00:50:00;;;;;;;7.07;5.90;;;;;;;22.48;72.30;93532.50;511801;28;836;-45
2023/08/26 00:50:15;;;;;;;7.37;5.60;;;;;;;22.46;72.35;93530.28;512591;28;1373;-45
2023/08/26 00:50:31;;;;;;;6.77;5.37;;;;;;;22.46;72.33;93535.94;512250;28;1377;-45
2023/08/26 00:50:48;;;;;;;5.95;5.13;;;;;;;22.38;72.39;93527.06;513702;28;793;-45
2023/08/26 00:51:03;;;;;;;5.35;4.82;;;;;;;22.46;72.39;93535.19;511421;29;940;-46
2023/08/26 00:51:19;;;;;;;5.87;5.13;;;;;;;22.39;72.44;93528.53;509457;29;1165;-46
2023/08/26 00:51:36;;;;;;;6.03;5.43;;;;;;;22.44;72.62;93532.28;511550;28;1441;-45
2023/08/26 00:51:52;;;;;;;5.97;5.35;;;;;;;22.44;72.48;93537.91;511612;28;931;-45
2023/08/26 00:52:07;;;;;;;6.32;5.30;;;;;;;22.43;72.44;93530.84;511585;28;912;-47
2023/08/26 00:52:23;;;;;;;6.00;5.20;;;;;;;22.43;72.38;93534.38;509784;28;1537;-49
2023/08/26 00:52:38;;;;;;;6.55;5.00;;;;;;;22.34;72.30;93518.44;509725;28;860;-46
2023/08/26 00:52:54;;;;;;;8.40;5.10;;;;;;;22.43;72.35;93537.19;510308;29;1152;-45
2023/08/26 00:53:13;;;;;;;8.03;5.23;;;;;;;22.42;72.03;93532.91;509614;29;848;-46
2023/08/26 00:53:28;;;;;;;8.83;5.27;;;;;;;22.42;72.12;93538.53;510754;29;960;-47
2023/08/26 00:53:44;;;;;;;8.02;5.38;;;;;;;22.41;72.05;93530.72;509637;29;767;-46
2023/08/26 00:53:59;;;;;;;6.97;5.37;;;;;;;22.39;72.08;93528.53;509669;29;774;-46
2023/08/26 00:54:15;;;;;;;6.53;5.38;;;;;;;22.40;72.00;93532.06;509516;29;1915;-47
2023/08/26 00:54:35;;;;;;;6.70;5.37;;;;;;;22.39;71.88;93534.16;509760;29;802;-47
2023/08/26 00:54:51;;;;;;;5.95;5.35;;;;;;;22.40;71.98;93529.25;510762;29;1210;-45
2023/08/26 00:55:07;;;;;;;5.87;5.23;;;;;;;22.39;72.07;93533.44;513082;28;802;-46
2023/08/26 00:55:23;;;;;;;6.95;5.32;;;;;;;22.39;72.12;93530.63;511728;29;790;-45
2023/08/26 00:55:42;;;;;;;7.83;5.33;;;;;;;22.38;72.16;93534.78;511610;28;860;-46
2023/08/26 00:55:59;;;;;;;5.60;5.10;;;;;;;22.36;71.94;93535.41;511590;29;900;-46
2023/08/26 00:56:15;;;;;;;5.55;5.00;;;;;;;22.35;72.19;93530.41;513490;28;951;-46
2023/08/26 00:56:31;;;;;;;5.63;4.72;;;;;;;22.34;72.12;93531.75;513649;28;658;-45
2023/08/26 00:56:46;;;;;;;6.13;5.05;;;;;;;22.34;72.14;93540.94;511557;28;1623;-45
2023/08/26 00:57:04;;;;;;;6.13;5.40;;;;;;;22.34;72.22;93529.69;511546;29;1230;-46
2023/08/26 00:57:19;;;;;;;5.63;4.95;;;;;;;22.33;72.26;93535.91;509745;29;887;-46
2023/08/26 00:57:35;;;;;;;5.97;5.33;;;;;;;22.32;72.51;93529.59;511016;29;1201;-46
2023/08/26 00:57:51;;;;;;;7.03;5.87;;;;;;;22.32;72.24;93535.22;511626;28;809;-46
2023/08/26 00:58:07;;;;;;;7.68;5.90;;;;;;;22.31;72.41;93539.38;511633;29;923;-46
2023/08/26 00:58:23;;;;;;;7.60;5.90;;;;;;;22.31;72.38;93533.72;511563;29;1079;-46
2023/08/26 00:58:38;;;;;;;6.93;5.67;;;;;;;22.30;72.33;93540.72;511544;29;820;-45
2023/08/26 00:58:53;;;;;;;5.75;5.20;;;;;;;22.30;72.27;93540.00;511712;28;1139;-46
2023/08/26 00:59:09;;;;;;;5.97;5.23;;;;;;;22.29;72.32;93541.34;513597;28;840;-46
2023/08/26 00:59:24;;;;;;;5.77;5.17;;;;;;;22.28;72.17;93543.44;515739;28;817;-45
2023/08/26 00:59:40;;;;;;;5.53;5.03;;;;;;;22.27;72.06;93535.59;515637;28;919;-45
2023/08/26 00:59:55;;;;;;;5.63;4.90;;;;;;;22.19;72.13;93523.94;515596;28;852;-45
2023/08/26 01:00:11;;;;;;;5.63;4.82;;;;;;;22.25;72.36;93538.31;513612;28;785;-45
2023/08/26 01:00:27;;;;;;;5.80;5.10;;;;;;;22.23;72.34;93536.13;513641;28;832;-46
2023/08/26 01:00:42;;;;;;;6.00;5.40;;;;;;;22.22;72.31;93529.03;513594;28;1283;-46
2023/08/26 01:00:58;;;;;;;6.13;5.53;;;;;;;22.23;72.23;93535.41;513545;28;1002;-45
2023/08/26 01:01:13;;;;;;;5.93;5.33;;;;;;;22.22;72.43;93540.28;510995;29;1211;-47
2023/08/26 01:01:31;;;;;;;5.90;5.30;;;;;;;22.19;72.49;93529.56;509279;28;1117;-45
2023/08/26 01:01:47;;;;;;;6.13;5.32;;;;;;;22.20;72.47;93533.84;509475;29;1172;-46
2023/08/26 01:02:03;;;;;;;6.35;5.22;;;;;;;22.20;72.28;93531.03;510364;29;1172;-46
2023/08/26 01:02:18;;;;;;;6.33;5.20;;;;;;;22.19;72.28;93533.13;509270;29;1438;-46
2023/08/26 01:02:34;;;;;;;6.53;5.17;;;;;;;22.18;72.28;93537.28;509724;29;877;-46
2023/08/26 01:02:49;;;;;;;6.30;5.35;;;;;;;22.17;72.19;93535.81;510390;29;885;-47
2023/08/26 01:03:06;;;;;;;6.23;5.50;;;;;;;22.15;72.46;93537.78;512236;28;1009;-46
2023/08/26 01:03:21;;;;;;;5.85;5.25;;;;;;;22.14;72.40;93531.44;513521;28;1143;-45
2023/08/26 01:03:39;;;;;;;5.60;5.00;;;;;;;22.13;72.59;93538.44;513723;28;838;-45
2023/08/26 01:03:55;;;;;;;5.25;4.75;;;;;;;22.12;72.53;93539.78;513500;28;914;-46
2023/08/26 01:04:11;;;;;;;7.97;5.20;;;;;;;22.11;72.73;93531.97;512944;28;1577;-45
2023/08/26 01:04:26;;;;;;;8.40;5.70;;;;;;;22.10;72.67;93536.84;512015;28;1274;-46
2023/08/26 01:04:42;;;;;;;6.05;5.45;;;;;;;22.09;72.62;93535.38;513774;28;873;-45
2023/08/26 01:04:57;;;;;;;5.82;5.22;;;;;;;22.09;72.90;93534.66;513115;28;1503;-46
2023/08/26 01:05:13;;;;;;;6.00;5.40;;;;;;;22.08;72.84;93538.81;513615;28;907;-45
2023/08/26 01:05:29;;;;;;;6.38;5.40;;;;;;;22.07;72.99;93538.09;513625;28;880;-47
2023/08/26 01:05:44;;;;;;;6.25;5.32;;;;;;;22.07;72.92;93535.28;513549;28;935;-47
2023/08/26 01:06:00;;;;;;;5.85;5.25;;;;;;;22.06;73.28;93533.84;513673;28;833;-46
2023/08/26 01:06:16;;;;;;;5.90;5.30;;;;;;;22.06;73.17;93539.47;512702;28;1508;-46
2023/08/26 01:06:31;;;;;;;5.90;5.30;;;;;;;22.06;73.39;93536.63;512934;28;1056;-46
2023/08/26 01:06:46;;;;;;;6.60;5.23;;;;;;;22.07;73.11;93538.09;513520;28;1187;-46
2023/08/26 01:07:02;;;;;;;6.95;5.20;;;;;;;22.07;73.40;93540.19;513536;28;1639;-45
2023/08/26 01:07:17;;;;;;;6.97;5.50;;;;;;;22.07;73.47;93531.75;513628;28;1330;-46
2023/08/26 01:07:33;;;;;;;7.22;5.95;;;;;;;22.07;73.22;93538.09;513751;28;1066;-46
2023/08/26 01:07:48;;;;;;;6.43;5.73;;;;;;;22.07;73.28;93535.28;513462;28;1238;-45
2023/08/26 01:08:05;;;;;;;6.55;5.70;;;;;;;22.06;73.39;93536.63;513718;28;927;-45
2023/08/26 01:08:21;;;;;;;6.15;5.53;;;;;;;22.07;73.47;93537.38;513784;28;813;-46
2023/08/26 01:08:36;;;;;;;6.07;5.47;;;;;;;22.06;73.24;93536.63;513821;28;892;-45
2023/08/26 01:08:52;;;;;;;6.20;5.47;;;;;;;22.06;73.52;93541.53;513791;28;888;-46
2023/08/26 01:09:07;;;;;;;6.15;5.30;;;;;;;22.04;73.49;93535.81;513675;28;856;-45
2023/08/26 01:09:23;;;;;;;5.73;5.10;;;;;;;22.03;73.80;93543.50;513799;28;937;-45
2023/08/26 01:09:38;;;;;;;5.93;5.32;;;;;;;22.03;73.60;93542.75;513758;28;1161;-45
2023/08/26 01:09:54;;;;;;;6.85;5.57;;;;;;;22.04;73.79;93544.97;513752;28;868;-45
2023/08/26 01:10:10;;;;;;;7.10;5.70;;;;;;;22.04;73.78;93541.41;513376;28;1420;-47
2023/08/26 01:10:59;;;;;;;6.90;5.85;;;;;;;22.03;73.90;93545.56;513767;28;853;-45
2023/08/26 01:11:28;;;;;;;6.80;6.10;;;;;;;22.02;74.04;93538.50;513606;28;1118;-45
2023/08/26 01:12:03;;;;;;;7.00;5.78;;;;;;;22.01;74.13;93539.84;513586;28;1002;-47
2023/08/26 01:13:01;;;;;;;6.80;5.57;;;;;;;21.99;74.47;93537.66;513596;28;918;-46
2023/08/26 01:13:18;;;;;;;7.47;5.88;;;;;;;21.98;74.45;93544.66;511434;29;1082;-45
2023/08/26 01:13:58;;;;;;;6.82;5.70;;;;;;;21.99;74.61;93534.13;511370;29;1297;-45
2023/08/26 01:14:22;;;;;;;6.68;5.95;;;;;;;21.98;74.74;93532.69;505184;29;1915;-45
2023/08/26 01:14:41;;;;;;;7.60;6.05;;;;;;;21.96;74.77;93538.91;508975;29;1580;-45
2023/08/26 01:15:04;;;;;;;6.53;5.65;;;;;;;21.97;74.69;93531.19;507497;29;1149;-45
2023/08/26 01:15:20;;;;;;;6.20;5.60;;;;;;;21.98;74.80;93535.47;507501;29;941;-44
2023/08/26 01:15:37;;;;;;;6.47;5.78;;;;;;;21.97;74.95;93525.56;507614;29;841;-46
2023/08/26 01:15:54;;;;;;;6.20;5.60;;;;;;;22.00;74.68;93535.59;508535;29;1305;-47
2023/08/26 01:16:11;;;;;;;6.40;5.80;;;;;;;21.99;74.81;93528.50;509596;29;1454;-45
2023/08/26 01:16:27;;;;;;;7.30;6.18;;;;;;;22.00;74.62;93527.16;509635;29;960;-46
2023/08/26 01:16:42;;;;;;;8.57;6.38;;;;;;;22.00;74.61;93533.50;509684;29;904;-46
2023/08/26 01:16:58;;;;;;;8.30;6.22;;;;;;;21.99;74.81;93529.22;511636;29;833;-45
2023/08/26 01:17:13;;;;;;;6.93;6.10;;;;;;;21.99;74.73;93523.59;511608;29;829;-45
2023/08/26 01:17:29;;;;;;;6.65;6.03;;;;;;;21.98;74.91;93530.59;511550;29;1125;-45
2023/08/26 01:17:45;;;;;;;6.53;5.90;;;;;;;21.98;74.86;93532.69;509308;29;1398;-45
2023/08/26 01:18:05;;;;;;;6.70;5.73;;;;;;;21.96;74.80;93529.75;508359;29;888;-45
2023/08/26 01:18:21;;;;;;;6.32;5.72;;;;;;;21.97;74.92;93529.13;507613;29;918;-45
2023/08/26 01:18:36;;;;;;;6.17;5.57;;;;;;;21.98;75.18;93527.06;506843;29;843;-45
2023/08/26 01:18:51;;;;;;;6.57;5.63;;;;;;;21.98;75.13;93535.47;507540;29;992;-45
2023/08/26 01:19:37;;;;;;;6.93;5.80;;;;;;;21.98;75.17;93524.25;507659;29;786;-46